Time;durP1;ratioP1;P1;durP2;ratioP2;P2;SDS_P1;SDS_P2;PMS_P1;PMS_P2;Temp;Humidity;BMP_temperature;BMP_pressure;BME280_temperature;BME280_humidity;BME280_pressure;Samples;Min_cycle;Max_cycle;Signal;HPM_P1;HPM_P2
2022/10/02 00:02:10;;;;;;;20.63;18.60;;;12.40;99.90;;;;;;5051611;28;20217;-75
2022/10/02 00:04:40;;;;;;;31.83;29.80;;;12.40;99.90;;;;;;5051619;28;20201;-75
2022/10/02 00:07:10;;;;;;;28.87;27.20;;;12.50;99.90;;;;;;5051262;28;20183;-75
2022/10/02 00:09:55;;;;;;;31.17;29.03;;;12.50;99.90;;;;;;5051460;28;20711;-76
2022/10/02 00:12:24;;;;;;;43.83;41.47;;;12.50;99.90;;;;;;5051586;28;20178;-75
2022/10/02 00:14:55;;;;;;;72.07;68.30;;;12.50;99.90;;;;;;5051376;28;20202;-75
2022/10/02 00:17:26;;;;;;;37.23;35.03;;;12.50;99.90;;;;;;5049803;28;20189;-76
2022/10/02 00:19:54;;;;;;;11.07;10.37;;;12.50;99.90;;;;;;5051386;28;20685;-76
2022/10/02 00:22:37;;;;;;;7.73;7.03;;;12.50;99.90;;;;;;5051446;28;20222;-75
2022/10/02 00:25:22;;;;;;;13.13;7.73;;;12.50;99.90;;;;;;5052346;28;20217;-75
2022/10/02 00:28:11;;;;;;;8.70;7.77;;;12.50;99.90;;;;;;5063130;28;20217;-75
2022/10/02 00:31:01;;;;;;;12.97;11.87;;;12.50;99.90;;;;;;5051393;28;20337;-75
2022/10/02 00:34:04;;;;;;;19.87;18.37;;;12.50;99.90;;;;;;5051256;28;20562;-75
2022/10/02 00:36:57;;;;;;;19.23;17.63;;;12.40;99.90;;;;;;5051054;28;20174;-75
2022/10/02 00:39:35;;;;;;;44.23;41.40;;;12.40;99.90;;;;;;5051005;28;20182;-75
2022/10/02 00:42:19;;;;;;;42.90;39.90;;;12.40;99.90;;;;;;5050839;28;20694;-76
2022/10/02 00:45:23;;;;;;;82.30;78.00;;;12.40;99.90;;;;;;5050926;28;20202;-75
2022/10/02 00:48:04;;;;;;;88.57;83.60;;;12.50;99.90;;;;;;5050650;28;20181;-75
2022/10/02 00:50:49;;;;;;;37.17;35.00;;;12.50;99.90;;;;;;5050928;28;20186;-76
2022/10/02 00:53:27;;;;;;;16.53;15.13;;;12.40;99.90;;;;;;5049553;28;20200;-75
2022/10/02 00:56:35;;;;;;;8.47;7.63;;;12.50;99.90;;;;;;5050669;28;20182;-75
2022/10/02 00:59:09;;;;;;;10.87;9.73;;;12.50;99.90;;;;;;5042824;28;20186;-75
2022/10/02 01:01:45;;;;;;;7.00;6.47;;;12.50;99.90;;;;;;5050666;28;20300;-75
2022/10/02 01:04:21;;;;;;;9.03;4.93;;;12.50;99.90;;;;;;5051080;28;20194;-75
2022/10/02 01:06:47;;;;;;;20.93;19.67;;;12.50;99.90;;;;;;5050543;28;20269;-75
2022/10/02 01:09:14;;;;;;;36.43;33.93;;;12.50;99.90;;;;;;5049556;28;20190;-76
2022/10/02 01:11:39;;;;;;;42.27;39.70;;;12.50;99.90;;;;;;5050773;28;20685;-75
2022/10/02 01:14:06;;;;;;;39.17;36.87;;;12.50;99.90;;;;;;5050882;28;20202;-75
2022/10/02 01:16:31;;;;;;;47.33;43.90;;;12.50;99.90;;;;;;5051276;28;20179;-76
2022/10/02 01:18:58;;;;;;;47.43;44.57;;;12.50;99.90;;;;;;5050442;28;20547;-76
2022/10/02 01:21:29;;;;;;;31.73;29.57;;;12.50;99.90;;;;;;5050536;28;20206;-76
2022/10/02 01:24:05;;;;;;;23.70;21.80;;;12.50;99.90;;;;;;5049330;28;20430;-76
2022/10/02 01:26:31;;;;;;;10.80;9.83;;;12.50;99.90;;;;;;5050539;28;20656;-75
2022/10/02 01:28:57;;;;;;;6.57;5.97;;;12.50;99.90;;;;;;5048950;28;20182;-75
2022/10/02 01:31:24;;;;;;;7.50;5.17;;;12.50;99.90;;;;;;5060457;28;20183;-76
2022/10/02 01:33:50;;;;;;;7.77;4.70;;;12.50;99.90;;;;;;5053560;28;20695;-75
2022/10/02 01:36:17;;;;;;;11.53;7.00;;;12.50;99.90;;;;;;5050486;28;20182;-76
2022/10/02 01:38:45;;;;;;;12.10;5.53;;;12.50;99.90;;;;;;5050171;28;20553;-75
2022/10/02 01:41:11;;;;;;;5.40;4.93;;;12.50;99.90;;;;;;5050428;28;20185;-75
2022/10/02 01:43:42;;;;;;;6.90;6.30;;;12.50;99.90;;;;;;5049079;28;20281;-75
2022/10/02 01:46:26;;;;;;;11.60;10.67;;;12.50;99.90;;;;;;5049260;28;20179;-75
2022/10/02 01:49:23;;;;;;;7.37;6.73;;;12.60;99.90;;;;;;5050027;28;20194;-75
2022/10/02 01:52:04;;;;;;;7.37;4.20;;;12.50;99.90;;;;;;5050542;28;20669;-75
2022/10/02 01:55:05;;;;;;;17.13;15.93;;;12.50;99.90;;;;;;5050253;28;20202;-75
2022/10/02 01:57:58;;;;;;;33.13;31.10;;;12.50;99.90;;;;;;5048697;28;20182;-75
2022/10/02 02:00:26;;;;;;;37.87;35.80;;;12.50;99.90;;;;;;5050191;28;20187;-75
2022/10/02 02:03:06;;;;;;;26.93;24.63;;;12.50;99.90;;;;;;5050118;28;20221;-76
2022/10/02 02:06:06;;;;;;;39.93;37.23;;;12.50;99.90;;;;;;5050267;28;20369;-75
2022/10/02 02:08:35;;;;;;;52.77;48.90;;;12.50;99.90;;;;;;5051837;28;20184;-75
2022/10/02 02:11:10;;;;;;;31.73;29.73;;;12.50;99.90;;;;;;5053637;28;20655;-76
2022/10/02 02:13:59;;;;;;;12.00;11.00;;;12.50;99.90;;;;;;5052566;28;20230;-75
2022/10/02 02:16:40;;;;;;;11.47;7.53;;;12.50;99.90;;;;;;5053676;28;20179;-76
2022/10/02 02:19:27;;;;;;;7.97;6.90;;;12.50;99.90;;;;;;5052306;28;20186;-76
2022/10/02 02:21:57;;;;;;;10.77;5.90;;;12.60;99.90;;;;;;5054168;28;20698;-76
2022/10/02 02:24:45;;;;;;;6.50;5.93;;;12.60;99.90;;;;;;5053401;28;20217;-74
2022/10/02 02:27:17;;;;;;;5.83;4.73;;;12.60;99.90;;;;;;5053295;28;20554;-76
2022/10/02 02:29:47;;;;;;;8.93;5.97;;;12.60;99.90;;;;;;5053566;28;20231;-76
2022/10/02 02:32:17;;;;;;;13.53;8.03;;;12.60;99.90;;;;;;5053413;28;20182;-76
2022/10/02 02:35:03;;;;;;;24.93;23.20;;;12.60;99.90;;;;;;5056527;28;20205;-76
2022/10/02 02:37:32;;;;;;;75.20;70.40;;;12.60;99.90;;;;;;5060014;28;20186;-76
2022/10/02 02:40:03;;;;;;;63.50;59.73;;;12.60;99.90;;;;;;5053442;28;20181;-76
2022/10/02 02:42:32;;;;;;;56.67;53.37;;;12.60;99.90;;;;;;5052009;28;20210;-76
2022/10/02 02:45:16;;;;;;;63.50;59.83;;;12.60;99.90;;;;;;5053329;28;20198;-75
2022/10/02 02:47:57;;;;;;;58.27;54.73;;;12.60;99.90;;;;;;5052826;28;20209;-75
2022/10/02 02:50:45;;;;;;;44.50;41.87;;;12.60;99.90;;;;;;5053075;28;20189;-76
2022/10/02 02:53:25;;;;;;;32.13;30.07;;;12.60;99.90;;;;;;5052909;28;20647;-76
2022/10/02 02:55:58;;;;;;;34.80;32.13;;;12.70;99.90;;;;;;5053515;28;20585;-78
2022/10/02 02:58:29;;;;;;;18.23;16.97;;;12.60;99.90;;;;;;5052676;28;20178;-76
2022/10/02 03:00:55;;;;;;;15.47;11.13;;;12.70;99.90;;;;;;5051896;28;20269;-75
2022/10/02 03:03:21;;;;;;;25.60;23.67;;;12.60;99.90;;;;;;5052850;28;20206;-77
2022/10/02 03:06:03;;;;;;;35.33;33.10;;;12.70;99.90;;;;;;5053372;28;20603;-76
2022/10/02 03:08:33;;;;;;;13.87;12.77;;;12.70;99.90;;;;;;5052663;28;20181;-75
2022/10/02 03:11:38;;;;;;;10.30;7.67;;;12.70;99.90;;;;;;5052941;28;20182;-76
2022/10/02 03:14:30;;;;;;;11.40;7.77;;;12.60;99.90;;;;;;5052622;28;20206;-76
2022/10/02 03:17:01;;;;;;;7.67;6.27;;;12.60;99.90;;;;;;5052448;28;20666;-75
2022/10/02 03:20:04;;;;;;;11.17;7.00;;;12.70;99.90;;;;;;5050630;28;20188;-75
2022/10/02 03:22:43;;;;;;;13.80;6.00;;;12.70;99.90;;;;;;5053138;28;20301;-76
2022/10/02 03:25:32;;;;;;;7.10;6.23;;;12.70;99.90;;;;;;5052475;28;20245;-76
2022/10/02 03:28:22;;;;;;;12.37;11.30;;;12.70;99.90;;;;;;5075290;28;20189;-76
2022/10/02 03:30:51;;;;;;;37.37;35.10;;;12.70;99.90;;;;;;5078271;28;20202;-76
2022/10/02 03:33:17;;;;;;;41.60;38.37;;;12.70;99.90;;;;;;5075915;28;20212;-76
2022/10/02 03:35:44;;;;;;;48.90;45.90;;;12.70;99.90;;;;;;5057184;28;20761;-76
2022/10/02 03:38:12;;;;;;;43.30;40.53;;;12.70;99.90;;;;;;5052574;28;20573;-76
2022/10/02 03:40:39;;;;;;;44.53;41.93;;;12.70;99.90;;;;;;5061917;28;20190;-76
2022/10/02 03:43:05;;;;;;;26.77;25.17;;;12.70;99.90;;;;;;5066812;28;20221;-76
2022/10/02 03:45:31;;;;;;;15.80;14.13;;;12.80;99.90;;;;;;5063749;28;20213;-76
2022/10/02 03:47:57;;;;;;;21.87;20.23;;;12.70;99.90;;;;;;5050789;28;20562;-76
2022/10/02 03:50:22;;;;;;;26.13;24.17;;;12.70;99.90;;;;;;5052219;28;20631;-75
2022/10/02 03:52:50;;;;;;;40.93;38.50;;;12.80;99.90;;;;;;5052013;28;20569;-76
2022/10/02 03:55:39;;;;;;;47.20;44.37;;;12.80;99.90;;;;;;5050801;28;20260;-75
2022/10/02 03:58:14;;;;;;;61.27;57.67;;;12.80;99.90;;;;;;5050772;28;20247;-75
2022/10/02 04:00:52;;;;;;;51.87;48.77;;;12.70;99.90;;;;;;5052302;28;20268;-75
2022/10/02 04:03:49;;;;;;;55.57;52.43;;;12.80;99.90;;;;;;5051894;28;20262;-75
2022/10/02 04:06:33;;;;;;;65.80;62.33;;;12.70;99.90;;;;;;5052061;28;20197;-76
2022/10/02 04:09:09;;;;;;;51.30;48.10;;;12.70;99.90;;;;;;5050679;28;20201;-76
2022/10/02 04:11:44;;;;;;;60.07;56.53;;;12.70;99.90;;;;;;5051658;28;20293;-76
2022/10/02 04:14:21;;;;;;;65.37;61.87;;;12.70;99.90;;;;;;5051696;28;20204;-76
2022/10/02 04:16:57;;;;;;;60.20;55.87;;;12.70;99.90;;;;;;5051195;28;20179;-76
2022/10/02 04:19:31;;;;;;;49.27;45.90;;;12.70;99.90;;;;;;5050653;28;20279;-76
2022/10/02 04:22:35;;;;;;;24.97;23.00;;;12.70;99.90;;;;;;5051837;28;20206;-76
2022/10/02 04:25:20;;;;;;;67.47;62.97;;;12.70;99.90;;;;;;5069661;23;20237;-78
2022/10/02 04:27:55;;;;;;;79.87;75.53;;;12.70;99.90;;;;;;5049303;28;20428;-77
2022/10/02 04:30:22;;;;;;;71.90;68.03;;;12.70;99.90;;;;;;5051649;28;20177;-77
2022/10/02 04:32:48;;;;;;;69.00;64.80;;;12.70;99.90;;;;;;5050140;28;20558;-77
2022/10/02 04:35:16;;;;;;;55.30;51.77;;;12.80;99.90;;;;;;5050118;28;20198;-77
2022/10/02 04:37:58;;;;;;;44.57;41.80;;;12.70;99.90;;;;;;5049534;28;20190;-77
2022/10/02 04:40:49;;;;;;;44.13;41.43;;;12.70;99.90;;;;;;5051026;28;20183;-77
2022/10/02 04:43:33;;;;;;;23.53;21.90;;;12.80;99.90;;;;;;5049934;28;20586;-77
2022/10/02 04:46:38;;;;;;;10.97;7.77;;;12.80;99.90;;;;;;5049946;28;20559;-77
2022/10/02 04:49:37;;;;;;;9.60;5.83;;;12.70;99.90;;;;;;5050776;28;20178;-78
2022/10/02 04:52:15;;;;;;;10.00;5.10;;;12.80;99.90;;;;;;5050677;28;20185;-77
2022/10/02 04:55:16;;;;;;;9.10;5.27;;;12.70;99.90;;;;;;5049798;28;20206;-77
2022/10/02 04:58:20;;;;;;;10.37;6.03;;;12.70;99.90;;;;;;5049701;28;20188;-77
2022/10/02 05:01:16;;;;;;;12.03;6.80;;;12.70;99.90;;;;;;5050243;28;20239;-77
2022/10/02 05:04:05;;;;;;;8.00;7.23;;;12.70;99.90;;;;;;5051583;28;20190;-77
2022/10/02 05:06:40;;;;;;;14.97;9.57;;;12.70;99.90;;;;;;5050040;28;20185;-76
2022/10/02 05:09:15;;;;;;;11.23;7.53;;;12.70;99.90;;;;;;5049332;28;20202;-76
2022/10/02 05:11:47;;;;;;;11.33;8.57;;;12.70;99.90;;;;;;5049491;28;20251;-76
2022/10/02 05:14:36;;;;;;;10.97;7.13;;;12.70;99.90;;;;;;5050745;28;20203;-77
2022/10/02 05:17:20;;;;;;;12.27;8.50;;;12.70;99.90;;;;;;5050437;28;20232;-77
2022/10/02 05:20:14;;;;;;;9.00;8.10;;;12.70;99.90;;;;;;5050799;28;20182;-76
2022/10/02 05:22:52;;;;;;;14.00;10.30;;;12.70;99.90;;;;;;5050637;28;20205;-77
2022/10/02 05:25:30;;;;;;;16.80;12.77;;;12.60;99.90;;;;;;5051839;28;20559;-76
2022/10/02 05:28:27;;;;;;;14.77;13.77;;;12.70;99.90;;;;;;5059494;28;20182;-76
2022/10/02 05:31:23;;;;;;;10.70;9.63;;;12.70;99.90;;;;;;5053595;28;20175;-76
2022/10/02 05:34:13;;;;;;;11.90;10.40;;;12.60;99.90;;;;;;5049245;28;20255;-76
2022/10/02 05:37:05;;;;;;;12.83;9.20;;;12.60;99.90;;;;;;5050489;28;20183;-76
2022/10/02 05:40:02;;;;;;;10.40;8.63;;;12.70;99.90;;;;;;5041891;28;20401;-77
2022/10/02 05:42:39;;;;;;;9.17;8.43;;;12.60;99.90;;;;;;5050772;28;20682;-76
2022/10/02 05:45:21;;;;;;;12.10;7.50;;;12.60;99.90;;;;;;5054209;28;20205;-77
2022/10/02 05:47:48;;;;;;;8.13;5.83;;;12.70;99.90;;;;;;5053818;28;20181;-76
2022/10/02 05:50:15;;;;;;;7.90;5.07;;;12.70;99.90;;;;;;5054175;28;20657;-76
2022/10/02 05:52:58;;;;;;;9.23;5.30;;;12.60;99.90;;;;;;5054211;28;20179;-76
2022/10/02 05:55:27;;;;;;;9.90;5.97;;;12.60;99.90;;;;;;5052816;28;20686;-77
2022/10/02 05:58:10;;;;;;;13.73;12.83;;;12.60;99.90;;;;;;5053586;28;20225;-77
2022/10/02 06:00:52;;;;;;;101.23;95.07;;;12.60;99.90;;;;;;5052677;28;20190;-76
2022/10/02 06:03:42;;;;;;;126.63;119.50;;;12.70;99.90;;;;;;5052706;28;20213;-76
2022/10/02 06:06:27;;;;;;;67.57;63.83;;;12.70;99.90;;;;;;5052752;28;20182;-77
2022/10/02 06:09:27;;;;;;;26.60;24.77;;;12.70;99.90;;;;;;5053333;28;20220;-76
2022/10/02 06:11:56;;;;;;;11.03;8.00;;;12.70;99.90;;;;;;5048701;28;20203;-76
2022/10/02 06:14:39;;;;;;;8.33;7.07;;;12.80;99.90;;;;;;5053645;28;20213;-76
2022/10/02 06:17:12;;;;;;;21.63;19.93;;;12.80;99.90;;;;;;5052012;28;20244;-77
2022/10/02 06:20:09;;;;;;;17.60;15.83;;;12.80;99.90;;;;;;5052585;28;20232;-76
2022/10/02 06:22:42;;;;;;;10.63;8.90;;;12.80;99.90;;;;;;5052293;28;20214;-76
2022/10/02 06:25:18;;;;;;;14.87;13.70;;;12.80;99.90;;;;;;5053570;28;20674;-76
2022/10/02 06:28:15;;;;;;;15.90;14.70;;;12.90;99.90;;;;;;5053061;28;20185;-76
2022/10/02 06:30:48;;;;;;;30.23;28.17;;;12.90;99.90;;;;;;5048771;28;20194;-76
2022/10/02 06:33:25;;;;;;;38.57;35.80;;;13.00;99.90;;;;;;5053365;28;20182;-76
2022/10/02 06:36:12;;;;;;;34.20;32.17;;;13.00;99.90;;;;;;5053143;28;20717;-76
2022/10/02 06:38:56;;;;;;;39.63;37.40;;;13.00;99.90;;;;;;5052971;28;20194;-76
2022/10/02 06:41:37;;;;;;;33.73;31.37;;;13.10;99.90;;;;;;5053053;28;20182;-76
2022/10/02 06:44:20;;;;;;;52.10;49.03;;;13.10;99.90;;;;;;5052040;28;20209;-76
2022/10/02 06:46:52;;;;;;;52.97;49.77;;;13.10;99.90;;;;;;5052770;28;20190;-76
2022/10/02 06:49:21;;;;;;;38.93;36.20;;;13.10;99.90;;;;;;5052973;28;20214;-76
2022/10/02 06:52:14;;;;;;;27.17;25.30;;;13.10;99.90;;;;;;5051850;28;20319;-76
2022/10/02 06:55:02;;;;;;;40.73;37.93;;;13.00;99.90;;;;;;5051717;28;20255;-76
2022/10/02 06:57:49;;;;;;;41.07;38.17;;;13.00;99.90;;;;;;5051502;28;20182;-76
2022/10/02 07:00:18;;;;;;;60.83;56.50;;;13.00;99.90;;;;;;5051547;28;20186;-76
2022/10/02 07:02:59;;;;;;;94.43;88.23;;;13.00;99.90;;;;;;5051293;28;20218;-76
2022/10/02 07:05:44;;;;;;;110.20;103.67;;;13.10;99.90;;;;;;5052537;28;20206;-76
2022/10/02 07:08:37;;;;;;;103.27;97.23;;;13.00;99.90;;;;;;5052317;28;20185;-76
2022/10/02 07:11:21;;;;;;;130.47;123.43;;;13.00;99.90;;;;;;5052613;28;20604;-76
2022/10/02 07:13:59;;;;;;;135.13;127.63;;;13.00;99.90;;;;;;5051156;28;20643;-76
2022/10/02 07:16:45;;;;;;;119.23;112.63;;;13.10;99.90;;;;;;5051275;28;20654;-76
2022/10/02 07:19:37;;;;;;;150.47;142.43;;;13.10;99.90;;;;;;5052997;28;20257;-76
2022/10/02 07:22:27;;;;;;;99.20;93.87;;;13.00;99.90;;;;;;5053236;28;20647;-76
2022/10/02 07:25:08;;;;;;;61.40;57.73;;;13.00;99.90;;;;;;5052184;28;20238;-76
2022/10/02 07:27:47;;;;;;;18.00;16.33;;;13.00;99.90;;;;;;5052181;28;20189;-76
2022/10/02 07:30:16;;;;;;;21.00;19.47;;;13.00;99.90;;;;;;5052325;28;20205;-76
2022/10/02 07:32:47;;;;;;;19.20;17.40;;;13.00;99.90;;;;;;5052162;28;20259;-76
2022/10/02 07:36:01;;;;;;;9.70;8.90;;;13.00;99.90;;;;;;5052183;28;20206;-76
2022/10/02 07:38:47;;;;;;;9.40;8.33;;;13.00;99.90;;;;;;5049581;28;20190;-75
2022/10/02 07:41:17;;;;;;;8.73;7.43;;;13.00;99.90;;;;;;5050439;28;20217;-76
2022/10/02 07:44:10;;;;;;;9.97;9.03;;;13.00;99.90;;;;;;5052080;28;20186;-76
2022/10/02 07:46:53;;;;;;;11.10;8.20;;;13.10;99.90;;;;;;5051977;28;20558;-76
2022/10/02 07:49:44;;;;;;;10.17;9.10;;;13.10;99.90;;;;;;5051817;28;20186;-75
2022/10/02 07:52:25;;;;;;;8.33;7.70;;;13.00;99.90;;;;;;5051674;28;20218;-76
2022/10/02 07:55:03;;;;;;;8.00;7.30;;;13.00;99.90;;;;;;5051842;28;20335;-76
2022/10/02 07:57:31;;;;;;;10.07;9.20;;;13.10;99.90;;;;;;5051312;28;20549;-76
2022/10/02 08:00:09;;;;;;;13.53;12.37;;;13.10;99.90;;;;;;5051719;28;20453;-76
2022/10/02 08:03:00;;;;;;;15.10;13.60;;;13.10;99.90;;;;;;5050168;28;20217;-76
2022/10/02 08:06:00;;;;;;;19.40;18.03;;;13.20;99.90;;;;;;5031680;28;20401;-76
2022/10/02 08:08:37;;;;;;;37.17;34.63;;;13.20;99.90;;;;;;5027562;28;20196;-76
2022/10/02 08:11:10;;;;;;;46.30;43.27;;;13.30;99.90;;;;;;5049955;28;20230;-76
2022/10/02 08:13:46;;;;;;;100.20;94.77;;;13.30;99.90;;;;;;5051258;28;20186;-76
2022/10/02 08:16:14;;;;;;;109.03;103.13;;;13.30;99.90;;;;;;5051447;28;20740;-76
2022/10/02 08:18:46;;;;;;;64.20;60.30;;;13.40;99.90;;;;;;5050930;28;20190;-76
2022/10/02 08:21:17;;;;;;;39.27;37.03;;;13.30;99.90;;;;;;5049923;28;20235;-75
2022/10/02 08:24:23;;;;;;;36.43;34.13;;;13.40;99.90;;;;;;5050088;28;20182;-76
2022/10/02 08:26:56;;;;;;;28.00;26.00;;;13.30;99.90;;;;;;5011957;28;20182;-76
2022/10/02 08:29:38;;;;;;;34.00;31.93;;;13.30;99.90;;;;;;5048237;28;20250;-76
2022/10/02 08:32:10;;;;;;;76.67;72.33;;;13.30;99.90;;;;;;5049949;28;20693;-76
2022/10/02 08:34:37;;;;;;;122.73;115.77;;;13.30;99.90;;;;;;5051433;28;20211;-76
2022/10/02 08:37:24;;;;;;;125.63;118.70;;;13.30;99.90;;;;;;5051172;28;20182;-76
2022/10/02 08:40:21;;;;;;;67.83;63.90;;;13.30;99.90;;;;;;5049705;28;20270;-76
2022/10/02 08:43:07;;;;;;;57.30;54.03;;;13.40;99.90;;;;;;5050972;28;20312;-76
2022/10/02 08:46:01;;;;;;;43.67;40.63;;;13.40;99.90;;;;;;5050845;28;20594;-76
2022/10/02 08:48:26;;;;;;;84.50;79.53;;;13.40;99.90;;;;;;5050670;28;20170;-76
2022/10/02 08:51:30;;;;;;;40.50;37.43;;;13.40;99.90;;;;;;5050846;28;20185;-76
2022/10/02 08:54:27;;;;;;;23.00;21.33;;;13.50;99.90;;;;;;5050736;28;20206;-76
2022/10/02 08:56:53;;;;;;;34.23;31.73;;;13.70;99.90;;;;;;5050757;28;20221;-76
2022/10/02 08:59:22;;;;;;;59.87;55.90;;;13.80;99.90;;;;;;5050588;28;20170;-76
2022/10/02 09:02:18;;;;;;;145.90;137.57;;;13.80;99.90;;;;;;5050586;28;20625;-76
2022/10/02 09:05:02;;;;;;;76.23;71.93;;;13.80;99.90;;;;;;5049326;28;20205;-75
2022/10/02 09:07:31;;;;;;;108.00;101.73;;;13.80;99.90;;;;;;5049442;28;20178;-75
2022/10/02 09:10:20;;;;;;;77.90;73.20;;;13.80;99.90;;;;;;5049385;28;20174;-76
2022/10/02 09:12:57;;;;;;;102.63;97.13;;;13.80;99.90;;;;;;5060364;28;20262;-75
2022/10/02 09:15:30;;;;;;;35.37;32.70;;;13.90;99.90;;;;;;5053932;28;20217;-75
2022/10/02 09:18:10;;;;;;;37.40;35.20;;;14.00;99.90;;;;;;5051502;28;20178;-76
2022/10/02 09:21:03;;;;;;;34.23;31.80;;;14.30;99.90;;;;;;5054624;28;20182;-76
2022/10/02 09:24:00;;;;;;;85.10;80.70;;;14.70;99.90;;;;;;5054398;28;20312;-75
2022/10/02 09:26:41;;;;;;;121.40;114.83;;;15.00;99.90;;;;;;5054546;28;20186;-76
2022/10/02 09:29:29;;;;;;;117.63;111.23;;;15.20;99.90;;;;;;5053214;28;20236;-76
2022/10/02 09:32:13;;;;;;;14.00;12.87;;;15.60;99.90;;;;;;5054393;28;20178;-76
2022/10/02 09:35:21;;;;;;;13.30;12.37;;;15.80;99.90;;;;;;5053213;28;20202;-75
2022/10/02 09:38:19;;;;;;;7.10;6.50;;;15.90;99.90;;;;;;5054092;28;20265;-75
2022/10/02 09:41:04;;;;;;;21.40;20.13;;;15.90;99.90;;;;;;5054460;28;20206;-75
2022/10/02 09:43:33;;;;;;;48.03;45.57;;;16.10;99.90;;;;;;5053374;28;20214;-75
2022/10/02 09:46:10;;;;;;;44.30;41.97;;;15.90;99.90;;;;;;5053161;28;20711;-75
2022/10/02 09:48:48;;;;;;;40.97;38.63;;;15.50;99.90;;;;;;5052636;28;20178;-76
2022/10/02 09:51:50;;;;;;;140.77;133.37;;;15.10;99.90;;;;;;5053103;28;20182;-76
2022/10/02 09:54:54;;;;;;;9.50;8.83;;;14.70;99.90;;;;;;5054293;28;20245;-76
2022/10/02 09:57:41;;;;;;;28.77;27.17;;;14.40;99.90;;;;;;5052654;28;20174;-76
2022/10/02 10:00:38;;;;;;;20.93;19.60;;;14.30;99.90;;;;;;5054228;28;20174;-76
2022/10/02 10:03:13;;;;;;;11.13;10.53;;;14.30;99.90;;;;;;5053936;28;20288;-76
2022/10/02 10:05:41;;;;;;;10.77;10.13;;;14.30;99.90;;;;;;5054000;28;20197;-76
2022/10/02 10:08:16;;;;;;;13.67;12.97;;;14.40;99.90;;;;;;5053557;28;20189;-76
2022/10/02 10:10:48;;;;;;;15.03;14.17;;;14.30;99.90;;;;;;5052798;28;20551;-76
2022/10/02 10:13:23;;;;;;;12.10;11.50;;;14.30;99.90;;;;;;5053839;28;20184;-76
2022/10/02 10:16:29;;;;;;;9.87;9.27;;;14.30;99.90;;;;;;5054214;28;20578;-76
2022/10/02 10:19:31;;;;;;;11.10;10.50;;;14.30;99.90;;;;;;5052345;28;20186;-76
2022/10/02 10:22:09;;;;;;;52.27;49.40;;;14.30;99.90;;;;;;5052513;28;20217;-76
2022/10/02 10:24:41;;;;;;;73.70;69.97;;;14.20;99.90;;;;;;5066081;22;20249;-77
2022/10/02 10:27:41;;;;;;;38.83;36.00;;;14.30;99.90;;;;;;5032101;28;20179;-76
2022/10/02 10:30:24;;;;;;;56.67;52.73;;;14.50;99.90;;;;;;5034205;28;20183;-77
2022/10/02 10:33:19;;;;;;;26.20;24.80;;;14.80;99.90;;;;;;5035245;28;20186;-77
2022/10/02 10:36:03;;;;;;;72.03;68.30;;;15.10;99.90;;;;;;4996549;28;20767;-77
2022/10/02 10:38:41;;;;;;;59.30;56.17;;;15.40;99.90;;;;;;5014197;28;20194;-77
2022/10/02 10:41:32;;;;;;;10.80;10.10;;;15.30;99.90;;;;;;5013731;28;20326;-77
2022/10/02 10:43:58;;;;;;;14.00;13.13;;;15.20;99.90;;;;;;5012301;28;20183;-77
2022/10/02 10:46:27;;;;;;;14.23;13.53;;;15.40;99.90;;;;;;5012483;28;20176;-77
2022/10/02 10:48:53;;;;;;;10.47;10.07;;;15.30;99.90;;;;;;5011826;28;20184;-77
2022/10/02 10:51:44;;;;;;;13.17;12.50;;;15.40;99.90;;;;;;5013334;28;20183;-77
2022/10/02 10:54:48;;;;;;;11.50;11.00;;;15.40;99.90;;;;;;5013215;28;20198;-78
2022/10/02 10:57:33;;;;;;;10.00;9.60;;;15.30;99.90;;;;;;5013285;28;20184;-77
2022/10/02 11:00:24;;;;;;;12.20;11.63;;;15.20;99.90;;;;;;5012196;28;20194;-76
2022/10/02 11:02:53;;;;;;;12.93;12.33;;;15.00;99.90;;;;;;5011961;28;20242;-76
2022/10/02 11:05:41;;;;;;;12.87;12.17;;;14.80;99.90;;;;;;5011981;28;20224;-77
2022/10/02 11:08:19;;;;;;;11.03;10.43;;;14.60;99.90;;;;;;5015384;28;20184;-77
2022/10/02 11:10:48;;;;;;;11.40;10.90;;;14.60;99.90;;;;;;5012499;28;20180;-77
2022/10/02 11:13:33;;;;;;;52.30;49.67;;;14.60;99.90;;;;;;5013610;28;20183;-77
2022/10/02 11:16:17;;;;;;;90.70;86.13;;;14.70;99.90;;;;;;5012446;28;20811;-78
2022/10/02 11:18:59;;;;;;;12.23;11.67;;;14.90;99.90;;;;;;5015029;28;20191;-77
2022/10/02 11:21:38;;;;;;;12.20;11.70;;;15.00;99.90;;;;;;5015708;28;20188;-77
2022/10/02 11:24:47;;;;;;;10.53;10.03;;;15.10;99.90;;;;;;5012612;28;20682;-77
2022/10/02 11:27:41;;;;;;;11.13;10.60;;;15.00;99.90;;;;;;5011228;28;20190;-76
2022/10/02 11:30:31;;;;;;;8.27;7.83;;;14.90;99.90;;;;;;5011561;28;20237;-77
2022/10/02 11:33:03;;;;;;;15.20;14.60;;;14.70;99.90;;;;;;5012767;28;20578;-77
2022/10/02 11:35:48;;;;;;;14.47;13.87;;;14.60;99.90;;;;;;5012430;28;20318;-77
2022/10/02 11:38:37;;;;;;;10.97;10.53;;;14.50;99.90;;;;;;5012664;28;20219;-77
2022/10/02 11:41:44;;;;;;;16.47;15.77;;;14.60;99.90;;;;;;5011176;28;20620;-76
2022/10/02 11:44:23;;;;;;;16.90;16.20;;;14.50;99.90;;;;;;5011295;28;20210;-77
2022/10/02 11:47:08;;;;;;;17.17;16.43;;;14.40;99.90;;;;;;5012558;28;20176;-76
2022/10/02 11:50:05;;;;;;;72.90;69.37;;;14.40;99.90;;;;;;5012511;28;20557;-77
2022/10/02 11:53:03;;;;;;;56.87;53.83;;;14.60;99.90;;;;;;5012286;28;20184;-77
2022/10/02 11:56:08;;;;;;;116.53;110.73;;;14.90;99.90;;;;;;4994244;28;20696;-76
2022/10/02 11:58:40;;;;;;;12.27;11.77;;;15.10;99.90;;;;;;5008740;28;20199;-76
2022/10/02 12:01:16;;;;;;;10.97;10.57;;;15.40;99.90;;;;;;5012280;28;20595;-76
2022/10/02 12:04:19;;;;;;;12.03;11.53;;;15.40;99.90;;;;;;5010858;28;20250;-76
2022/10/02 12:06:56;;;;;;;11.40;10.90;;;15.20;99.90;;;;;;5010689;28;20669;-76
2022/10/02 12:10:04;;;;;;;8.00;7.70;;;15.00;99.90;;;;;;5010700;28;20179;-76
2022/10/02 12:12:58;;;;;;;15.40;14.77;;;15.00;99.90;;;;;;5011856;28;20180;-76
2022/10/02 12:15:55;;;;;;;11.17;10.67;;;15.00;99.90;;;;;;5010651;28;20203;-76
2022/10/02 12:18:38;;;;;;;12.80;12.20;;;15.20;99.90;;;;;;5011444;28;20656;-76
2022/10/02 12:27:13;;;;;;;17.83;17.03;;;15.00;99.90;;;;;;5012060;28;20183;-77
2022/10/02 12:30:03;;;;;;;21.33;20.33;;;15.10;99.90;;;;;;5010541;28;20184;-76
2022/10/02 12:32:45;;;;;;;21.20;20.27;;;15.10;99.90;;;;;;5011568;28;20399;-76
2022/10/02 12:35:33;;;;;;;22.23;21.20;;;14.90;99.90;;;;;;5011448;28;20207;-76
2022/10/02 12:38:08;;;;;;;11.73;11.23;;;14.80;99.90;;;;;;5011182;28;20183;-76
2022/10/02 12:41:07;;;;;;;18.20;17.33;;;14.80;99.90;;;;;;5011409;28;20183;-76
2022/10/02 12:43:39;;;;;;;16.90;15.97;;;14.70;99.90;;;;;;5011280;28;20216;-76
2022/10/02 12:46:44;;;;;;;18.20;17.40;;;14.80;99.90;;;;;;5010054;28;20202;-76
2022/10/02 12:49:24;;;;;;;13.73;13.20;;;14.90;99.90;;;;;;5011081;28;20667;-76
2022/10/02 12:52:22;;;;;;;24.33;22.47;;;15.00;99.90;;;;;;5009354;28;20179;-76
2022/10/02 12:55:16;;;;;;;37.80;35.57;;;14.90;99.90;;;;;;5010818;28;20210;-76
2022/10/02 12:57:54;;;;;;;41.43;39.43;;;14.70;99.90;;;;;;5012278;28;20222;-76
2022/10/02 13:00:42;;;;;;;34.50;32.40;;;14.50;99.90;;;;;;5013268;28;20187;-76
2022/10/02 13:03:27;;;;;;;21.23;19.47;;;14.30;99.90;;;;;;5010570;28;20215;-76
2022/10/02 13:06:15;;;;;;;17.60;16.83;;;14.30;99.90;;;;;;5010811;28;20249;-76
2022/10/02 13:09:02;;;;;;;37.37;35.47;;;14.30;99.90;;;;;;5010399;28;20603;-76
2022/10/02 13:11:52;;;;;;;46.60;43.93;;;14.20;99.90;;;;;;5011175;28;20187;-75
2022/10/02 13:14:36;;;;;;;30.63;29.07;;;14.30;99.90;;;;;;5011484;28;20743;-75
2022/10/02 13:17:24;;;;;;;23.83;22.73;;;14.30;99.90;;;;;;5010038;28;20175;-75
2022/10/02 13:20:34;;;;;;;14.07;13.40;;;14.30;99.90;;;;;;5012162;28;20207;-76
2022/10/02 13:23:23;;;;;;;29.60;28.17;;;14.20;99.90;;;;;;5012048;28;20215;-77
2022/10/02 13:25:56;;;;;;;97.03;92.03;;;14.20;99.90;;;;;;5010285;28;20219;-76
2022/10/02 13:29:00;;;;;;;195.53;185.63;;;14.10;99.90;;;;;;5009830;28;20210;-76
2022/10/02 13:32:04;;;;;;;46.80;44.47;;;14.10;99.90;;;;;;5011075;28;20699;-76
2022/10/02 13:35:02;;;;;;;9.63;9.23;;;14.10;99.90;;;;;;5009893;28;20199;-78
2022/10/02 13:37:31;;;;;;;6.50;6.20;;;14.20;99.90;;;;;;5010147;28;20190;-77
2022/10/02 13:40:14;;;;;;;5.60;5.40;;;14.30;99.90;;;;;;5010991;28;20703;-76
2022/10/02 13:43:17;;;;;;;15.17;14.47;;;14.50;99.90;;;;;;5010250;28;20700;-76
2022/10/02 13:46:08;;;;;;;25.27;24.00;;;14.60;99.90;;;;;;5011452;28;20238;-77
2022/10/02 13:48:43;;;;;;;120.10;114.17;;;14.60;99.90;;;;;;5009994;28;20194;-77
2022/10/02 13:51:21;;;;;;;97.57;92.77;;;14.50;99.90;;;;;;5010144;28;20664;-77